sensor_id;sensor_type;location;lat;lon;timestamp;P1;durP1;ratioP1;P2;durP2;ratioP2
14748;SDS011;7466;53.574;9.976;2023-03-14T00:02:00;5.27;;;3.63;;
14748;SDS011;7466;53.574;9.976;2023-03-14T00:04:27;6.00;;;4.00;;
14748;SDS011;7466;53.574;9.976;2023-03-14T00:06:54;7.90;;;4.43;;
14748;SDS011;7466;53.574;9.976;2023-03-14T00:09:24;5.23;;;4.20;;
14748;SDS011;7466;53.574;9.976;2023-03-14T00:11:54;6.90;;;3.57;;
14748;SDS011;7466;53.574;9.976;2023-03-14T00:14:27;6.97;;;3.80;;
14748;SDS011;7466;53.574;9.976;2023-03-14T00:16:54;5.93;;;3.43;;
14748;SDS011;7466;53.574;9.976;2023-03-14T00:19:21;6.07;;;3.20;;
14748;SDS011;7466;53.574;9.976;2023-03-14T00:21:48;5.50;;;3.67;;
14748;SDS011;7466;53.574;9.976;2023-03-14T00:24:18;7.10;;;3.60;;
14748;SDS011;7466;53.574;9.976;2023-03-14T00:26:46;6.27;;;3.70;;
14748;SDS011;7466;53.574;9.976;2023-03-14T00:29:13;5.43;;;3.60;;
14748;SDS011;7466;53.574;9.976;2023-03-14T00:31:41;8.73;;;3.30;;
14748;SDS011;7466;53.574;9.976;2023-03-14T00:34:08;8.40;;;3.40;;
14748;SDS011;7466;53.574;9.976;2023-03-14T00:36:35;8.60;;;3.57;;
14748;SDS011;7466;53.574;9.976;2023-03-14T00:39:01;7.77;;;2.90;;
14748;SDS011;7466;53.574;9.976;2023-03-14T00:41:29;9.33;;;3.30;;
14748;SDS011;7466;53.574;9.976;2023-03-14T00:43:57;8.13;;;2.90;;
14748;SDS011;7466;53.574;9.976;2023-03-14T00:46:24;5.43;;;3.03;;
14748;SDS011;7466;53.574;9.976;2023-03-14T00:48:50;7.23;;;3.30;;
14748;SDS011;7466;53.574;9.976;2023-03-14T00:54:03;9.23;;;3.10;;
14748;SDS011;7466;53.574;9.976;2023-03-14T00:56:30;9.43;;;3.70;;
14748;SDS011;7466;53.574;9.976;2023-03-14T00:58:58;10.53;;;3.63;;
14748;SDS011;7466;53.574;9.976;2023-03-14T01:01:26;9.87;;;3.57;;
14748;SDS011;7466;53.574;9.976;2023-03-14T01:03:53;6.90;;;3.33;;
14748;SDS011;7466;53.574;9.976;2023-03-14T01:06:40;10.60;;;3.60;;
14748;SDS011;7466;53.574;9.976;2023-03-14T01:09:06;8.43;;;3.13;;
14748;SDS011;7466;53.574;9.976;2023-03-14T01:11:34;5.93;;;3.10;;
14748;SDS011;7466;53.574;9.976;2023-03-14T01:14:03;8.27;;;3.17;;
14748;SDS011;7466;53.574;9.976;2023-03-14T01:16:31;6.77;;;3.13;;
14748;SDS011;7466;53.574;9.976;2023-03-14T01:19:00;8.67;;;3.37;;
14748;SDS011;7466;53.574;9.976;2023-03-14T01:21:29;3.83;;;2.97;;
14748;SDS011;7466;53.574;9.976;2023-03-14T01:24:11;6.70;;;2.97;;
14748;SDS011;7466;53.574;9.976;2023-03-14T01:26:38;8.17;;;3.27;;
14748;SDS011;7466;53.574;9.976;2023-03-14T01:29:06;8.00;;;3.23;;
14748;SDS011;7466;53.574;9.976;2023-03-14T01:31:33;7.83;;;3.33;;
14748;SDS011;7466;53.574;9.976;2023-03-14T01:34:00;6.03;;;3.00;;
14748;SDS011;7466;53.574;9.976;2023-03-14T01:36:28;7.13;;;3.07;;
14748;SDS011;7466;53.574;9.976;2023-03-14T01:38:56;6.90;;;2.90;;
14748;SDS011;7466;53.574;9.976;2023-03-14T01:41:23;7.60;;;3.13;;
14748;SDS011;7466;53.574;9.976;2023-03-14T01:43:51;5.83;;;3.07;;
14748;SDS011;7466;53.574;9.976;2023-03-14T01:46:25;6.53;;;3.00;;
14748;SDS011;7466;53.574;9.976;2023-03-14T01:48:58;9.77;;;3.33;;
14748;SDS011;7466;53.574;9.976;2023-03-14T01:51:31;8.57;;;3.40;;
14748;SDS011;7466;53.574;9.976;2023-03-14T01:54:06;9.20;;;3.83;;
14748;SDS011;7466;53.574;9.976;2023-03-14T01:56:37;7.03;;;3.47;;
14748;SDS011;7466;53.574;9.976;2023-03-14T01:59:06;8.43;;;3.67;;
14748;SDS011;7466;53.574;9.976;2023-03-14T02:01:37;7.50;;;3.63;;
14748;SDS011;7466;53.574;9.976;2023-03-14T02:04:07;6.87;;;3.77;;
14748;SDS011;7466;53.574;9.976;2023-03-14T02:06:37;5.73;;;3.07;;
14748;SDS011;7466;53.574;9.976;2023-03-14T02:09:13;8.67;;;3.77;;
14748;SDS011;7466;53.574;9.976;2023-03-14T02:11:41;9.83;;;3.77;;
14748;SDS011;7466;53.574;9.976;2023-03-14T02:14:08;8.40;;;3.70;;
14748;SDS011;7466;53.574;9.976;2023-03-14T02:16:46;6.67;;;3.77;;
14748;SDS011;7466;53.574;9.976;2023-03-14T02:19:14;10.90;;;3.60;;
14748;SDS011;7466;53.574;9.976;2023-03-14T02:21:49;10.53;;;4.00;;
14748;SDS011;7466;53.574;9.976;2023-03-14T02:24:27;6.70;;;3.47;;
14748;SDS011;7466;53.574;9.976;2023-03-14T02:27:11;9.67;;;3.90;;
14748;SDS011;7466;53.574;9.976;2023-03-14T02:29:44;7.47;;;3.50;;
14748;SDS011;7466;53.574;9.976;2023-03-14T02:32:15;9.77;;;3.80;;
14748;SDS011;7466;53.574;9.976;2023-03-14T02:34:43;9.20;;;3.70;;
14748;SDS011;7466;53.574;9.976;2023-03-14T02:37:13;9.30;;;3.67;;
14748;SDS011;7466;53.574;9.976;2023-03-14T02:39:44;6.77;;;3.30;;
14748;SDS011;7466;53.574;9.976;2023-03-14T02:42:16;6.63;;;3.53;;
14748;SDS011;7466;53.574;9.976;2023-03-14T02:44:53;5.90;;;3.37;;
14748;SDS011;7466;53.574;9.976;2023-03-14T02:47:30;8.80;;;3.97;;
14748;SDS011;7466;53.574;9.976;2023-03-14T02:49:59;7.77;;;3.90;;
14748;SDS011;7466;53.574;9.976;2023-03-14T02:52:32;9.00;;;3.90;;
14748;SDS011;7466;53.574;9.976;2023-03-14T02:54:59;7.40;;;3.50;;
14748;SDS011;7466;53.574;9.976;2023-03-14T02:57:27;8.33;;;3.90;;
14748;SDS011;7466;53.574;9.976;2023-03-14T02:59:54;7.03;;;3.67;;
14748;SDS011;7466;53.574;9.976;2023-03-14T03:02:26;5.60;;;4.13;;
14748;SDS011;7466;53.574;9.976;2023-03-14T03:04:54;8.20;;;3.63;;
14748;SDS011;7466;53.574;9.976;2023-03-14T03:07:21;6.70;;;4.37;;
14748;SDS011;7466;53.574;9.976;2023-03-14T03:10:01;7.00;;;4.00;;
14748;SDS011;7466;53.574;9.976;2023-03-14T03:12:29;9.40;;;4.20;;
14748;SDS011;7466;53.574;9.976;2023-03-14T03:14:56;6.77;;;3.70;;
14748;SDS011;7466;53.574;9.976;2023-03-14T03:17:23;6.23;;;3.70;;
14748;SDS011;7466;53.574;9.976;2023-03-14T03:19:49;7.30;;;4.40;;
14748;SDS011;7466;53.574;9.976;2023-03-14T03:22:16;6.53;;;3.63;;
14748;SDS011;7466;53.574;9.976;2023-03-14T03:24:43;7.03;;;4.13;;
14748;SDS011;7466;53.574;9.976;2023-03-14T03:27:10;6.67;;;3.93;;
14748;SDS011;7466;53.574;9.976;2023-03-14T03:29:38;5.50;;;3.57;;
14748;SDS011;7466;53.574;9.976;2023-03-14T03:32:05;5.90;;;3.50;;
14748;SDS011;7466;53.574;9.976;2023-03-14T03:34:32;8.37;;;3.73;;
14748;SDS011;7466;53.574;9.976;2023-03-14T03:37:00;7.87;;;3.20;;
14748;SDS011;7466;53.574;9.976;2023-03-14T03:39:27;6.07;;;3.97;;
14748;SDS011;7466;53.574;9.976;2023-03-14T03:41:54;7.47;;;3.60;;
14748;SDS011;7466;53.574;9.976;2023-03-14T03:44:21;8.83;;;3.60;;
14748;SDS011;7466;53.574;9.976;2023-03-14T03:46:49;5.57;;;3.20;;
14748;SDS011;7466;53.574;9.976;2023-03-14T03:49:17;6.73;;;3.60;;
14748;SDS011;7466;53.574;9.976;2023-03-14T03:51:44;4.67;;;3.10;;
14748;SDS011;7466;53.574;9.976;2023-03-14T03:54:11;5.83;;;3.30;;
14748;SDS011;7466;53.574;9.976;2023-03-14T03:56:38;4.47;;;3.00;;
14748;SDS011;7466;53.574;9.976;2023-03-14T03:59:04;7.73;;;3.50;;
14748;SDS011;7466;53.574;9.976;2023-03-14T04:01:32;4.87;;;3.73;;
14748;SDS011;7466;53.574;9.976;2023-03-14T04:04:04;7.33;;;3.30;;
14748;SDS011;7466;53.574;9.976;2023-03-14T04:06:31;7.50;;;3.20;;
14748;SDS011;7466;53.574;9.976;2023-03-14T04:08:58;5.43;;;3.20;;
14748;SDS011;7466;53.574;9.976;2023-03-14T04:11:25;6.53;;;3.40;;
14748;SDS011;7466;53.574;9.976;2023-03-14T04:13:52;7.73;;;3.40;;
14748;SDS011;7466;53.574;9.976;2023-03-14T04:16:20;6.83;;;3.30;;
14748;SDS011;7466;53.574;9.976;2023-03-14T04:18:48;6.27;;;3.30;;
14748;SDS011;7466;53.574;9.976;2023-03-14T04:21:20;7.23;;;3.60;;
14748;SDS011;7466;53.574;9.976;2023-03-14T04:23:47;6.57;;;3.53;;
14748;SDS011;7466;53.574;9.976;2023-03-14T04:26:14;8.50;;;3.60;;
14748;SDS011;7466;53.574;9.976;2023-03-14T04:28:41;10.13;;;3.57;;
14748;SDS011;7466;53.574;9.976;2023-03-14T04:31:08;6.33;;;3.03;;
14748;SDS011;7466;53.574;9.976;2023-03-14T04:33:36;8.50;;;3.70;;
14748;SDS011;7466;53.574;9.976;2023-03-14T04:36:04;8.50;;;3.77;;
14748;SDS011;7466;53.574;9.976;2023-03-14T04:38:34;6.20;;;3.90;;
14748;SDS011;7466;53.574;9.976;2023-03-14T04:41:02;7.77;;;3.97;;
14748;SDS011;7466;53.574;9.976;2023-03-14T04:43:31;8.97;;;3.87;;
14748;SDS011;7466;53.574;9.976;2023-03-14T04:45:59;6.97;;;4.37;;
14748;SDS011;7466;53.574;9.976;2023-03-14T04:48:26;6.03;;;3.67;;
14748;SDS011;7466;53.574;9.976;2023-03-14T04:50:54;6.53;;;4.13;;
14748;SDS011;7466;53.574;9.976;2023-03-14T04:53:23;9.37;;;4.13;;
14748;SDS011;7466;53.574;9.976;2023-03-14T04:55:51;5.77;;;3.90;;
14748;SDS011;7466;53.574;9.976;2023-03-14T04:58:20;7.63;;;4.23;;
14748;SDS011;7466;53.574;9.976;2023-03-14T05:00:49;6.10;;;3.87;;
14748;SDS011;7466;53.574;9.976;2023-03-14T05:03:16;5.00;;;4.03;;
14748;SDS011;7466;53.574;9.976;2023-03-14T05:05:44;7.07;;;3.90;;
14748;SDS011;7466;53.574;9.976;2023-03-14T05:08:12;6.50;;;3.63;;
14748;SDS011;7466;53.574;9.976;2023-03-14T05:10:39;7.80;;;3.70;;
14748;SDS011;7466;53.574;9.976;2023-03-14T05:13:07;6.27;;;2.90;;
14748;SDS011;7466;53.574;9.976;2023-03-14T05:15:34;5.43;;;2.60;;
14748;SDS011;7466;53.574;9.976;2023-03-14T05:18:01;9.53;;;2.50;;
14748;SDS011;7466;53.574;9.976;2023-03-14T05:20:28;4.23;;;2.47;;
14748;SDS011;7466;53.574;9.976;2023-03-14T05:22:56;3.57;;;2.60;;
14748;SDS011;7466;53.574;9.976;2023-03-14T05:25:23;5.13;;;2.97;;
14748;SDS011;7466;53.574;9.976;2023-03-14T05:27:50;6.83;;;3.33;;
14748;SDS011;7466;53.574;9.976;2023-03-14T05:30:21;3.93;;;3.07;;
14748;SDS011;7466;53.574;9.976;2023-03-14T05:32:48;4.77;;;3.17;;
14748;SDS011;7466;53.574;9.976;2023-03-14T05:35:15;5.17;;;3.57;;
14748;SDS011;7466;53.574;9.976;2023-03-14T05:37:42;5.40;;;3.30;;
14748;SDS011;7466;53.574;9.976;2023-03-14T05:40:09;4.23;;;3.67;;
14748;SDS011;7466;53.574;9.976;2023-03-14T05:42:36;8.13;;;4.00;;
14748;SDS011;7466;53.574;9.976;2023-03-14T05:45:04;5.30;;;4.07;;
14748;SDS011;7466;53.574;9.976;2023-03-14T05:47:33;5.37;;;3.63;;
14748;SDS011;7466;53.574;9.976;2023-03-14T05:50:00;5.60;;;4.23;;
14748;SDS011;7466;53.574;9.976;2023-03-14T05:52:27;5.50;;;4.40;;
14748;SDS011;7466;53.574;9.976;2023-03-14T05:54:54;5.27;;;4.77;;
14748;SDS011;7466;53.574;9.976;2023-03-14T05:57:21;6.30;;;4.53;;
14748;SDS011;7466;53.574;9.976;2023-03-14T05:59:47;6.33;;;5.73;;
14748;SDS011;7466;53.574;9.976;2023-03-14T06:02:16;7.97;;;5.30;;
14748;SDS011;7466;53.574;9.976;2023-03-14T06:04:44;8.97;;;6.10;;
14748;SDS011;7466;53.574;9.976;2023-03-14T06:07:11;12.30;;;6.10;;
14748;SDS011;7466;53.574;9.976;2023-03-14T06:09:38;9.60;;;6.30;;
14748;SDS011;7466;53.574;9.976;2023-03-14T06:12:05;10.33;;;6.57;;
14748;SDS011;7466;53.574;9.976;2023-03-14T06:14:32;10.53;;;7.23;;
14748;SDS011;7466;53.574;9.976;2023-03-14T06:16:59;11.77;;;6.23;;
14748;SDS011;7466;53.574;9.976;2023-03-14T06:19:26;6.80;;;6.10;;
14748;SDS011;7466;53.574;9.976;2023-03-14T06:21:55;8.37;;;6.03;;
14748;SDS011;7466;53.574;9.976;2023-03-14T06:24:22;13.33;;;6.17;;
14748;SDS011;7466;53.574;9.976;2023-03-14T06:26:49;9.50;;;6.07;;
14748;SDS011;7466;53.574;9.976;2023-03-14T06:29:16;10.87;;;5.40;;
14748;SDS011;7466;53.574;9.976;2023-03-14T06:31:43;10.70;;;5.23;;
14748;SDS011;7466;53.574;9.976;2023-03-14T06:34:12;6.97;;;5.63;;
14748;SDS011;7466;53.574;9.976;2023-03-14T06:36:41;8.10;;;5.03;;
14748;SDS011;7466;53.574;9.976;2023-03-14T06:39:09;8.47;;;5.30;;
14748;SDS011;7466;53.574;9.976;2023-03-14T06:41:36;7.47;;;4.40;;
14748;SDS011;7466;53.574;9.976;2023-03-14T06:44:04;5.80;;;4.80;;
14748;SDS011;7466;53.574;9.976;2023-03-14T06:46:31;7.20;;;5.07;;
14748;SDS011;7466;53.574;9.976;2023-03-14T06:48:58;6.83;;;4.23;;
14748;SDS011;7466;53.574;9.976;2023-03-14T06:51:24;7.43;;;4.50;;
14748;SDS011;7466;53.574;9.976;2023-03-14T06:53:51;9.47;;;4.20;;
14748;SDS011;7466;53.574;9.976;2023-03-14T06:56:20;7.90;;;4.30;;
14748;SDS011;7466;53.574;9.976;2023-03-14T06:58:46;7.67;;;4.17;;
14748;SDS011;7466;53.574;9.976;2023-03-14T07:01:17;6.87;;;4.47;;
14748;SDS011;7466;53.574;9.976;2023-03-14T07:03:48;5.80;;;3.43;;
14748;SDS011;7466;53.574;9.976;2023-03-14T07:06:15;10.43;;;3.70;;
14748;SDS011;7466;53.574;9.976;2023-03-14T07:08:42;10.83;;;3.93;;
14748;SDS011;7466;53.574;9.976;2023-03-14T07:11:09;5.97;;;3.20;;
14748;SDS011;7466;53.574;9.976;2023-03-14T07:13:38;8.77;;;3.27;;
14748;SDS011;7466;53.574;9.976;2023-03-14T07:16:06;3.73;;;2.33;;
14748;SDS011;7466;53.574;9.976;2023-03-14T07:18:34;7.13;;;3.17;;
14748;SDS011;7466;53.574;9.976;2023-03-14T07:21:02;5.57;;;2.80;;
14748;SDS011;7466;53.574;9.976;2023-03-14T07:23:29;8.73;;;2.83;;
14748;SDS011;7466;53.574;9.976;2023-03-14T07:25:56;7.57;;;2.20;;
14748;SDS011;7466;53.574;9.976;2023-03-14T07:28:23;8.33;;;2.57;;
14748;SDS011;7466;53.574;9.976;2023-03-14T07:30:51;6.83;;;2.77;;
14748;SDS011;7466;53.574;9.976;2023-03-14T07:33:18;5.93;;;2.60;;
14748;SDS011;7466;53.574;9.976;2023-03-14T07:35:46;10.40;;;3.00;;
14748;SDS011;7466;53.574;9.976;2023-03-14T07:38:14;8.10;;;3.17;;
14748;SDS011;7466;53.574;9.976;2023-03-14T07:40:41;5.53;;;3.07;;
14748;SDS011;7466;53.574;9.976;2023-03-14T07:43:08;5.90;;;3.33;;
14748;SDS011;7466;53.574;9.976;2023-03-14T07:45:36;5.73;;;3.03;;
14748;SDS011;7466;53.574;9.976;2023-03-14T07:48:07;4.77;;;2.83;;
14748;SDS011;7466;53.574;9.976;2023-03-14T07:50:34;6.27;;;2.70;;
14748;SDS011;7466;53.574;9.976;2023-03-14T07:53:01;4.60;;;2.63;;
14748;SDS011;7466;53.574;9.976;2023-03-14T07:55:28;4.37;;;2.23;;
14748;SDS011;7466;53.574;9.976;2023-03-14T07:57:55;4.27;;;2.30;;
14748;SDS011;7466;53.574;9.976;2023-03-14T08:00:22;7.13;;;2.23;;
14748;SDS011;7466;53.574;9.976;2023-03-14T08:02:49;4.80;;;2.30;;
14748;SDS011;7466;53.574;9.976;2023-03-14T08:05:17;2.47;;;1.97;;
14748;SDS011;7466;53.574;9.976;2023-03-14T08:07:44;3.03;;;2.20;;
14748;SDS011;7466;53.574;9.976;2023-03-14T08:10:12;4.70;;;1.87;;
14748;SDS011;7466;53.574;9.976;2023-03-14T08:12:46;5.17;;;1.90;;
14748;SDS011;7466;53.574;9.976;2023-03-14T08:15:12;4.70;;;2.23;;
14748;SDS011;7466;53.574;9.976;2023-03-14T08:17:39;3.83;;;2.00;;
14748;SDS011;7466;53.574;9.976;2023-03-14T08:20:08;3.73;;;1.97;;
14748;SDS011;7466;53.574;9.976;2023-03-14T08:22:42;6.10;;;2.00;;
14748;SDS011;7466;53.574;9.976;2023-03-14T08:25:09;6.23;;;2.13;;
14748;SDS011;7466;53.574;9.976;2023-03-14T08:27:36;3.67;;;2.00;;
14748;SDS011;7466;53.574;9.976;2023-03-14T08:30:08;5.00;;;2.30;;
14748;SDS011;7466;53.574;9.976;2023-03-14T08:32:37;4.70;;;2.33;;
14748;SDS011;7466;53.574;9.976;2023-03-14T08:35:06;5.50;;;2.70;;
14748;SDS011;7466;53.574;9.976;2023-03-14T08:37:42;6.87;;;2.67;;
14748;SDS011;7466;53.574;9.976;2023-03-14T08:40:09;6.73;;;2.70;;
14748;SDS011;7466;53.574;9.976;2023-03-14T08:42:37;5.27;;;2.63;;
14748;SDS011;7466;53.574;9.976;2023-03-14T08:45:05;6.13;;;3.00;;
14748;SDS011;7466;53.574;9.976;2023-03-14T08:47:34;3.00;;;2.47;;
14748;SDS011;7466;53.574;9.976;2023-03-14T08:50:04;7.77;;;3.00;;
14748;SDS011;7466;53.574;9.976;2023-03-14T08:52:32;7.63;;;3.13;;
14748;SDS011;7466;53.574;9.976;2023-03-14T08:55:00;5.83;;;3.37;;
14748;SDS011;7466;53.574;9.976;2023-03-14T08:57:27;9.83;;;3.50;;
14748;SDS011;7466;53.574;9.976;2023-03-14T08:59:55;6.30;;;3.20;;
14748;SDS011;7466;53.574;9.976;2023-03-14T09:02:22;5.73;;;3.30;;
14748;SDS011;7466;53.574;9.976;2023-03-14T09:04:52;6.37;;;3.77;;
14748;SDS011;7466;53.574;9.976;2023-03-14T09:07:31;7.73;;;3.70;;
14748;SDS011;7466;53.574;9.976;2023-03-14T09:09:59;7.13;;;4.33;;
14748;SDS011;7466;53.574;9.976;2023-03-14T09:12:28;6.37;;;3.77;;
14748;SDS011;7466;53.574;9.976;2023-03-14T09:14:55;8.20;;;3.97;;
14748;SDS011;7466;53.574;9.976;2023-03-14T09:17:26;7.07;;;4.37;;
14748;SDS011;7466;53.574;9.976;2023-03-14T09:19:53;8.70;;;4.33;;
14748;SDS011;7466;53.574;9.976;2023-03-14T09:22:23;10.30;;;4.03;;
14748;SDS011;7466;53.574;9.976;2023-03-14T09:24:50;10.83;;;4.50;;
14748;SDS011;7466;53.574;9.976;2023-03-14T09:27:18;9.10;;;4.40;;
14748;SDS011;7466;53.574;9.976;2023-03-14T09:29:45;9.07;;;4.40;;
14748;SDS011;7466;53.574;9.976;2023-03-14T09:32:12;7.90;;;4.83;;
14748;SDS011;7466;53.574;9.976;2023-03-14T09:34:39;8.33;;;4.43;;
14748;SDS011;7466;53.574;9.976;2023-03-14T09:37:05;7.90;;;4.60;;
14748;SDS011;7466;53.574;9.976;2023-03-14T09:39:32;6.47;;;4.10;;
14748;SDS011;7466;53.574;9.976;2023-03-14T09:42:01;8.07;;;4.60;;
14748;SDS011;7466;53.574;9.976;2023-03-14T09:44:33;7.97;;;4.77;;
14748;SDS011;7466;53.574;9.976;2023-03-14T09:47:04;8.03;;;4.50;;
14748;SDS011;7466;53.574;9.976;2023-03-14T09:49:33;6.93;;;4.70;;
14748;SDS011;7466;53.574;9.976;2023-03-14T09:52:03;8.63;;;4.73;;
14748;SDS011;7466;53.574;9.976;2023-03-14T09:54:37;7.27;;;3.37;;
14748;SDS011;7466;53.574;9.976;2023-03-14T09:57:09;2.93;;;1.70;;
14748;SDS011;7466;53.574;9.976;2023-03-14T09:59:40;1.77;;;1.10;;
14748;SDS011;7466;53.574;9.976;2023-03-14T10:02:14;2.40;;;1.17;;
14748;SDS011;7466;53.574;9.976;2023-03-14T10:04:43;3.10;;;1.20;;
14748;SDS011;7466;53.574;9.976;2023-03-14T10:07:13;1.63;;;1.10;;
14748;SDS011;7466;53.574;9.976;2023-03-14T10:09:43;1.83;;;1.17;;
14748;SDS011;7466;53.574;9.976;2023-03-14T10:12:10;3.47;;;1.97;;
14748;SDS011;7466;53.574;9.976;2023-03-14T10:14:38;1.70;;;1.10;;
14748;SDS011;7466;53.574;9.976;2023-03-14T10:17:13;2.63;;;1.20;;
14748;SDS011;7466;53.574;9.976;2023-03-14T10:19:50;2.30;;;1.13;;
14748;SDS011;7466;53.574;9.976;2023-03-14T10:22:18;1.97;;;1.37;;
14748;SDS011;7466;53.574;9.976;2023-03-14T10:24:47;2.60;;;1.53;;
14748;SDS011;7466;53.574;9.976;2023-03-14T10:27:19;1.23;;;0.90;;
14748;SDS011;7466;53.574;9.976;2023-03-14T10:29:53;2.60;;;1.10;;
14748;SDS011;7466;53.574;9.976;2023-03-14T10:32:21;1.00;;;0.90;;
14748;SDS011;7466;53.574;9.976;2023-03-14T10:35:03;2.30;;;0.80;;
14748;SDS011;7466;53.574;9.976;2023-03-14T10:37:36;0.97;;;0.90;;
14748;SDS011;7466;53.574;9.976;2023-03-14T10:40:24;1.57;;;0.80;;
14748;SDS011;7466;53.574;9.976;2023-03-14T10:42:53;1.87;;;0.70;;
14748;SDS011;7466;53.574;9.976;2023-03-14T10:45:32;0.87;;;0.50;;
14748;SDS011;7466;53.574;9.976;2023-03-14T10:48:06;1.00;;;0.67;;
14748;SDS011;7466;53.574;9.976;2023-03-14T10:50:49;0.90;;;0.50;;
14748;SDS011;7466;53.574;9.976;2023-03-14T10:53:21;0.93;;;0.67;;
14748;SDS011;7466;53.574;9.976;2023-03-14T10:55:48;0.43;;;0.33;;
14748;SDS011;7466;53.574;9.976;2023-03-14T10:58:25;0.73;;;0.73;;
14748;SDS011;7466;53.574;9.976;2023-03-14T11:00:57;1.07;;;0.60;;
14748;SDS011;7466;53.574;9.976;2023-03-14T11:03:42;0.63;;;0.63;;
14748;SDS011;7466;53.574;9.976;2023-03-14T11:06:14;1.03;;;0.40;;
14748;SDS011;7466;53.574;9.976;2023-03-14T11:08:48;1.13;;;0.70;;
14748;SDS011;7466;53.574;9.976;2023-03-14T11:11:23;1.07;;;0.67;;
14748;SDS011;7466;53.574;9.976;2023-03-14T11:13:58;1.00;;;0.60;;
14748;SDS011;7466;53.574;9.976;2023-03-14T11:16:40;1.27;;;0.60;;
14748;SDS011;7466;53.574;9.976;2023-03-14T11:22:12;1.47;;;0.87;;
14748;SDS011;7466;53.574;9.976;2023-03-14T11:24:49;2.17;;;0.90;;
14748;SDS011;7466;53.574;9.976;2023-03-14T11:27:36;1.23;;;0.60;;
14748;SDS011;7466;53.574;9.976;2023-03-14T11:30:19;0.77;;;0.60;;
14748;SDS011;7466;53.574;9.976;2023-03-14T11:32:53;0.73;;;0.70;;
14748;SDS011;7466;53.574;9.976;2023-03-14T11:35:34;1.70;;;0.83;;
14748;SDS011;7466;53.574;9.976;2023-03-14T11:38:10;3.20;;;1.13;;
14748;SDS011;7466;53.574;9.976;2023-03-14T11:40:40;2.47;;;0.90;;
14748;SDS011;7466;53.574;9.976;2023-03-14T11:43:10;1.93;;;1.07;;
14748;SDS011;7466;53.574;9.976;2023-03-14T11:45:42;2.57;;;0.93;;
14748;SDS011;7466;53.574;9.976;2023-03-14T11:48:15;6.27;;;1.10;;
14748;SDS011;7466;53.574;9.976;2023-03-14T11:50:46;3.63;;;1.20;;
14748;SDS011;7466;53.574;9.976;2023-03-14T11:53:18;2.23;;;1.00;;
14748;SDS011;7466;53.574;9.976;2023-03-14T11:55:48;7.17;;;1.73;;
14748;SDS011;7466;53.574;9.976;2023-03-14T11:58:17;3.73;;;1.43;;
14748;SDS011;7466;53.574;9.976;2023-03-14T12:00:48;7.63;;;1.50;;
14748;SDS011;7466;53.574;9.976;2023-03-14T12:03:19;3.60;;;1.40;;
14748;SDS011;7466;53.574;9.976;2023-03-14T12:06:05;6.50;;;1.43;;
14748;SDS011;7466;53.574;9.976;2023-03-14T12:08:42;4.07;;;1.50;;
14748;SDS011;7466;53.574;9.976;2023-03-14T12:14:02;5.00;;;1.40;;
14748;SDS011;7466;53.574;9.976;2023-03-14T12:16:33;3.10;;;1.30;;
14748;SDS011;7466;53.574;9.976;2023-03-14T12:22:08;5.97;;;1.67;;
14748;SDS011;7466;53.574;9.976;2023-03-14T12:24:45;9.77;;;1.70;;
14748;SDS011;7466;53.574;9.976;2023-03-14T12:30:13;8.33;;;1.60;;
14748;SDS011;7466;53.574;9.976;2023-03-14T12:39:24;6.57;;;1.83;;
14748;SDS011;7466;53.574;9.976;2023-03-14T12:42:03;10.90;;;2.00;;
14748;SDS011;7466;53.574;9.976;2023-03-14T12:44:47;6.67;;;1.67;;
14748;SDS011;7466;53.574;9.976;2023-03-14T12:50:26;10.37;;;1.90;;
14748;SDS011;7466;53.574;9.976;2023-03-14T12:53:10;7.73;;;2.27;;
14748;SDS011;7466;53.574;9.976;2023-03-14T12:56:06;11.00;;;1.97;;
14748;SDS011;7466;53.574;9.976;2023-03-14T12:58:43;8.23;;;1.83;;
14748;SDS011;7466;53.574;9.976;2023-03-14T13:01:15;11.47;;;1.83;;
14748;SDS011;7466;53.574;9.976;2023-03-14T13:03:43;13.60;;;2.03;;
14748;SDS011;7466;53.574;9.976;2023-03-14T13:06:12;6.17;;;2.30;;
14748;SDS011;7466;53.574;9.976;2023-03-14T13:12:17;8.60;;;2.20;;
14748;SDS011;7466;53.574;9.976;2023-03-14T13:14:49;13.03;;;2.13;;
14748;SDS011;7466;53.574;9.976;2023-03-14T13:17:19;7.63;;;2.30;;
14748;SDS011;7466;53.574;9.976;2023-03-14T13:19:51;12.37;;;2.27;;
14748;SDS011;7466;53.574;9.976;2023-03-14T13:22:22;17.77;;;3.03;;
14748;SDS011;7466;53.574;9.976;2023-03-14T13:24:57;11.60;;;2.70;;
14748;SDS011;7466;53.574;9.976;2023-03-14T13:30:15;8.97;;;1.93;;
14748;SDS011;7466;53.574;9.976;2023-03-14T13:32:45;9.87;;;1.80;;
14748;SDS011;7466;53.574;9.976;2023-03-14T13:35:14;5.67;;;1.90;;
14748;SDS011;7466;53.574;9.976;2023-03-14T13:37:46;6.37;;;1.70;;
14748;SDS011;7466;53.574;9.976;2023-03-14T13:40:20;5.77;;;1.93;;
14748;SDS011;7466;53.574;9.976;2023-03-14T13:43:04;10.43;;;1.90;;
14748;SDS011;7466;53.574;9.976;2023-03-14T13:45:41;5.47;;;1.80;;
14748;SDS011;7466;53.574;9.976;2023-03-14T13:48:16;5.63;;;1.80;;
14748;SDS011;7466;53.574;9.976;2023-03-14T13:50:45;7.13;;;1.90;;
14748;SDS011;7466;53.574;9.976;2023-03-14T13:53:15;8.33;;;1.90;;
14748;SDS011;7466;53.574;9.976;2023-03-14T13:55:43;7.67;;;2.10;;
14748;SDS011;7466;53.574;9.976;2023-03-14T13:58:13;12.17;;;2.60;;
14748;SDS011;7466;53.574;9.976;2023-03-14T14:00:58;10.00;;;2.17;;
14748;SDS011;7466;53.574;9.976;2023-03-14T14:03:29;6.23;;;1.70;;
14748;SDS011;7466;53.574;9.976;2023-03-14T14:05:58;9.13;;;2.10;;
14748;SDS011;7466;53.574;9.976;2023-03-14T14:08:25;11.30;;;2.57;;
14748;SDS011;7466;53.574;9.976;2023-03-14T14:10:53;13.20;;;2.53;;
14748;SDS011;7466;53.574;9.976;2023-03-14T14:13:25;10.20;;;2.33;;
14748;SDS011;7466;53.574;9.976;2023-03-14T14:15:56;13.07;;;2.70;;
14748;SDS011;7466;53.574;9.976;2023-03-14T14:18:27;8.33;;;2.23;;
14748;SDS011;7466;53.574;9.976;2023-03-14T14:20:54;12.73;;;2.27;;
14748;SDS011;7466;53.574;9.976;2023-03-14T14:23:22;8.40;;;2.27;;
14748;SDS011;7466;53.574;9.976;2023-03-14T14:25:54;9.03;;;2.03;;
14748;SDS011;7466;53.574;9.976;2023-03-14T14:28:23;9.70;;;2.17;;
14748;SDS011;7466;53.574;9.976;2023-03-14T14:31:00;7.83;;;1.67;;
14748;SDS011;7466;53.574;9.976;2023-03-14T14:33:39;8.40;;;2.27;;
14748;SDS011;7466;53.574;9.976;2023-03-14T14:38:58;7.37;;;2.10;;
14748;SDS011;7466;53.574;9.976;2023-03-14T14:41:30;6.30;;;1.60;;
14748;SDS011;7466;53.574;9.976;2023-03-14T14:44:01;9.30;;;2.07;;
14748;SDS011;7466;53.574;9.976;2023-03-14T14:46:30;6.73;;;1.80;;
14748;SDS011;7466;53.574;9.976;2023-03-14T14:49:02;4.30;;;1.50;;
14748;SDS011;7466;53.574;9.976;2023-03-14T14:51:32;7.47;;;1.90;;
14748;SDS011;7466;53.574;9.976;2023-03-14T14:54:03;6.20;;;1.87;;
14748;SDS011;7466;53.574;9.976;2023-03-14T14:56:36;4.60;;;1.37;;
14748;SDS011;7466;53.574;9.976;2023-03-14T14:59:06;4.83;;;1.83;;
14748;SDS011;7466;53.574;9.976;2023-03-14T15:01:45;8.97;;;1.80;;
14748;SDS011;7466;53.574;9.976;2023-03-14T15:04:16;8.93;;;2.03;;
14748;SDS011;7466;53.574;9.976;2023-03-14T15:06:43;7.67;;;2.20;;
14748;SDS011;7466;53.574;9.976;2023-03-14T15:09:11;6.67;;;1.70;;
14748;SDS011;7466;53.574;9.976;2023-03-14T15:11:38;7.03;;;1.97;;
14748;SDS011;7466;53.574;9.976;2023-03-14T15:14:06;8.90;;;1.87;;
14748;SDS011;7466;53.574;9.976;2023-03-14T15:16:33;8.37;;;2.17;;
14748;SDS011;7466;53.574;9.976;2023-03-14T15:19:02;9.13;;;1.90;;
14748;SDS011;7466;53.574;9.976;2023-03-14T15:21:33;9.37;;;2.00;;
14748;SDS011;7466;53.574;9.976;2023-03-14T15:24:00;8.13;;;2.20;;
14748;SDS011;7466;53.574;9.976;2023-03-14T15:26:27;11.37;;;2.60;;
14748;SDS011;7466;53.574;9.976;2023-03-14T15:28:54;12.63;;;2.70;;
14748;SDS011;7466;53.574;9.976;2023-03-14T15:31:22;11.57;;;2.53;;
14748;SDS011;7466;53.574;9.976;2023-03-14T15:33:49;9.70;;;2.40;;
14748;SDS011;7466;53.574;9.976;2023-03-14T15:36:19;7.77;;;2.20;;
14748;SDS011;7466;53.574;9.976;2023-03-14T15:38:55;10.87;;;2.37;;
14748;SDS011;7466;53.574;9.976;2023-03-14T15:41:25;13.20;;;2.60;;
14748;SDS011;7466;53.574;9.976;2023-03-14T15:43:52;10.70;;;2.27;;
14748;SDS011;7466;53.574;9.976;2023-03-14T15:46:20;6.23;;;1.80;;
14748;SDS011;7466;53.574;9.976;2023-03-14T15:48:49;9.13;;;2.27;;
14748;SDS011;7466;53.574;9.976;2023-03-14T15:51:17;7.87;;;1.93;;